Atlantic Challenge — EI5772 — position and weather

sailwx.info

Track history (hours):
 
Tides and Currents Weather Stations Pressure Air Temp Water Temp Dewpoint Dewpoint Depression Visibility Wind Speed Wind Dir Waves Ship Positions

Atlantic Challenge

Last reported at 2014-May-10 12:24 UTC. Time now 2014-Jul-26 15:15 UTC.
Position N 09°01' W 017°39'.
Warning: this ship's position is months out of date.

; draft 7 m.

MMSI: 250183000.

Date/timePositionNaut miles runAvg speedWind from/ knotsBaromVisibWave heightAir tempDewpointWater temp
2014-May-10 12:24N 09°01' W 017°39'  
2014-May-05 16:30N 31°00' W 012°54'1212.6
2014-May-05 15:32N 31°12' W 012°52'2512.6
2014-May-05 13:33N 31°37' W 012°49'1212.4
2014-May-05 12:33N 31°49' W 012°47'1212.3
2014-May-05 11:33N 32°01' W 012°45'1312.5
2014-May-05 10:33N 32°14' W 012°44'1312.8
2014-May-05 09:32N 32°27' W 012°42'1312.9
2014-May-05 08:33N 32°39' W 012°40'1312.9
2014-May-05 07:33N 32°52' W 012°39'1312.9
2014-May-05 06:33N 33°05' W 012°37'1312.8
2014-May-05 05:31N 33°18' W 012°35'1212.4
2014-May-05 04:33N 33°30' W 012°34'1312.6
2014-May-05 03:33N 33°42' W 012°32'1212.5
2014-May-05 02:33N 33°55' W 012°30'2412.2
2014-May-05 00:33N 34°19' W 012°27'1212.1
2014-May-04 23:33N 34°31' W 012°25'1212.2
2014-May-04 22:33N 34°43' W 012°23'1212.0
2014-May-04 21:33N 34°55' W 012°22'1211.9
2014-May-04 20:33N 35°07' W 012°20'1211.9
2014-May-04 19:33N 35°18' W 012°18'1212.2
2014-May-04 18:33N 35°31' W 012°16'1212.2
2014-May-04 17:33N 35°43' W 012°15'1212.3
2014-May-04 16:33N 35°55' W 012°13'1312.3
2014-May-04 15:32N 36°07' W 012°11'1212.3
2014-May-04 14:33N 36°19' W 012°09'1212.4
2014-May-04 13:33N 36°32' W 012°08'1312.7
2014-May-04 12:33N 36°44' W 012°06'1312.6
2014-May-04 11:33N 36°57' W 012°04'1312.5
2014-May-04 10:33N 37°09' W 012°02'1212.6
2014-May-04 09:33N 37°22' W 012°00'1312.4
2014-May-04 08:33N 37°34' W 011°58'1212.5
2014-May-04 07:33N 37°47' W 011°57'1212.5
2014-May-04 06:33N 37°59' W 011°57'1212.1
2014-May-04 05:33N 38°11' W 011°56'  
2014-May-01 10:31N 51°59' W 010°47'1212.2
2014-May-01 09:33N 52°11' W 010°46'9712.1
2014-May-01 01:32N 53°48' W 010°31'1212.1
2014-May-01 00:33N 53°59' W 010°30'1110.8
2014-Apr-30 23:33N 54°09' W 010°21'1211.7
2014-Apr-30 22:32N 54°18' W 010°07'1211.8
2014-Apr-30 21:33N 54°23' W 009°49'1312.2
2014-Apr-30 20:31N 54°26' W 009°28'2412.0
2014-Apr-30 18:33N 54°32' W 008°49'1211.9
2014-Apr-30 17:33N 54°35' W 008°29'3 3.0
2014-Apr-30 16:33N 54°38' W 008°26'0 0.0
2014-Apr-30 15:33N 54°38' W 008°26'0 0.0
2014-Apr-30 14:33N 54°38' W 008°26'0 0.0
2014-Apr-30 13:33N 54°38' W 008°26'0 0.0
2014-Apr-30 12:32N 54°38' W 008°26'  
Track history (hours):
 
Tides and Currents Weather Stations Pressure Air Temp Water Temp Dewpoint Dewpoint Depression Visibility Wind Speed Wind Dir Waves Ship Positions

Atlantic Challenge

Last reported at 2014-May-10 12:24 UTC. Time now 2014-Jul-26 15:15 UTC.
Position N 09°01' W 017°39'.
Warning: this ship's position is months out of date.

; draft 7 m.

MMSI: 250183000.

Date/timePositionNaut miles runAvg speedWind from/ knotsBaromVisibWave heightAir tempDewpointWater temp
2014-May-10 12:24N 09°01' W 017°39'  
2014-May-05 16:30N 31°00' W 012°54'1212.6
2014-May-05 15:32N 31°12' W 012°52'2512.6
2014-May-05 13:33N 31°37' W 012°49'1212.4
2014-May-05 12:33N 31°49' W 012°47'1212.3
2014-May-05 11:33N 32°01' W 012°45'1312.5
2014-May-05 10:33N 32°14' W 012°44'1312.8
2014-May-05 09:32N 32°27' W 012°42'1312.9
2014-May-05 08:33N 32°39' W 012°40'1312.9
2014-May-05 07:33N 32°52' W 012°39'1312.9
2014-May-05 06:33N 33°05' W 012°37'1312.8
2014-May-05 05:31N 33°18' W 012°35'1212.4
2014-May-05 04:33N 33°30' W 012°34'1312.6
2014-May-05 03:33N 33°42' W 012°32'1212.5
2014-May-05 02:33N 33°55' W 012°30'2412.2
2014-May-05 00:33N 34°19' W 012°27'1212.1
2014-May-04 23:33N 34°31' W 012°25'1212.2
2014-May-04 22:33N 34°43' W 012°23'1212.0
2014-May-04 21:33N 34°55' W 012°22'1211.9
2014-May-04 20:33N 35°07' W 012°20'1211.9
2014-May-04 19:33N 35°18' W 012°18'1212.2
2014-May-04 18:33N 35°31' W 012°16'1212.2
2014-May-04 17:33N 35°43' W 012°15'1212.3
2014-May-04 16:33N 35°55' W 012°13'1312.3
2014-May-04 15:32N 36°07' W 012°11'1212.3
2014-May-04 14:33N 36°19' W 012°09'1212.4
2014-May-04 13:33N 36°32' W 012°08'1312.7
2014-May-04 12:33N 36°44' W 012°06'1312.6
2014-May-04 11:33N 36°57' W 012°04'1312.5
2014-May-04 10:33N 37°09' W 012°02'1212.6
2014-May-04 09:33N 37°22' W 012°00'1312.4
2014-May-04 08:33N 37°34' W 011°58'1212.5
2014-May-04 07:33N 37°47' W 011°57'1212.5
2014-May-04 06:33N 37°59' W 011°57'1212.1
2014-May-04 05:33N 38°11' W 011°56'  
2014-May-01 10:31N 51°59' W 010°47'1212.2
2014-May-01 09:33N 52°11' W 010°46'9712.1
2014-May-01 01:32N 53°48' W 010°31'1212.1
2014-May-01 00:33N 53°59' W 010°30'1110.8
2014-Apr-30 23:33N 54°09' W 010°21'1211.7
2014-Apr-30 22:32N 54°18' W 010°07'1211.8
2014-Apr-30 21:33N 54°23' W 009°49'1312.2
2014-Apr-30 20:31N 54°26' W 009°28'2412.0
2014-Apr-30 18:33N 54°32' W 008°49'1211.9
2014-Apr-30 17:33N 54°35' W 008°29'3 3.0
2014-Apr-30 16:33N 54°38' W 008°26'0 0.0
2014-Apr-30 15:33N 54°38' W 008°26'0 0.0
2014-Apr-30 14:33N 54°38' W 008°26'0 0.0
2014-Apr-30 13:33N 54°38' W 008°26'0 0.0
2014-Apr-30 12:32N 54°38' W 008°26'  

Dump ship's entire track history